EDT,Max TemperatureF,Mean TemperatureF,Min TemperatureF,Max Dew PointF,MeanDew PointF,Min DewpointF,Max Humidity, Mean Humidity, Min Humidity, Max Sea Level PressureIn, Mean Sea Level PressureIn, Min Sea Level PressureIn, Max VisibilityMiles, Mean VisibilityMiles, Min VisibilityMiles, Max Wind SpeedMPH, Mean Wind SpeedMPH, Max Gust SpeedMPH,PrecipitationIn, CloudCover, Events, WindDirDegrees
2013-8-1,80,70,59,64,60,51,94,82,38,29.99,29.96,29.94,10,4,0,15,5,21,0.00,5,Fog,280
2013-8-2,79,66,55,70,61,51,94,86,71,30.00,29.94,29.86,10,7,0,17,4,22,0.57,5,Fog-Rain-Thunderstorm,198
2013-8-3,80,69,59,64,60,47,100,81,38,30.09,30.00,29.94,10,4,0,15,2,24,0.01,4,Fog-Rain,337
2013-8-4,77,64,53,55,52,49,93,66,40,30.20,30.15,30.09,10,10,10,12,3,,0.00,1,,357
2013-8-5,75,63,51,61,55,48,94,76,55,30.14,30.07,29.95,10,8,1,10,2,,0.00,3,,189
2013-8-6,80,71,63,68,64,60,90,79,65,29.96,29.92,29.89,10,8,2,10,5,,0.45,6,Rain,185
2013-8-7,82,75,68,70,68,64,94,82,66,29.93,29.87,29.84,10,6,0,26,7,36,0.41,4,Fog-Rain-Thunderstorm,208
2013-8-8,79,71,64,68,64,61,90,75,61,30.02,29.97,29.92,10,10,5,12,6,,0.00,6,,33
2013-8-9,81,72,64,64,60,58,87,70,47,30.03,29.99,29.96,10,10,10,12,4,,0.00,0,,297
2013-8-10,81,72,64,65,62,58,90,72,50,30.12,30.08,30.04,10,9,3,9,2,,0.00,5,,24
2013-8-11,80,68,57,64,59,55,94,74,47,30.13,30.10,30.06,10,8,2,7,2,,0.00,2,,292
2013-8-12,84,73,64,67,64,60,90,74,54,30.06,29.96,29.85,10,9,2,14,6,26,0.25,2,Rain-Thunderstorm,228
2013-8-13,69,62,55,64,53,46,94,73,47,30.12,30.00,29.89,10,9,2,16,8,22,0.01,2,,345
2013-8-14,71,59,48,51,47,44,86,66,42,30.22,30.17,30.12,10,10,10,12,5,,0.00,2,,339
2013-8-15,73,60,46,57,50,43,93,72,45,30.20,30.16,30.12,10,10,2,7,1,,0.00,1,,247
2013-8-16,79,64,50,56,52,48,94,77,39,30.20,30.16,30.14,10,5,0,8,1,,0.00,1,Fog,69
2013-8-17,80,65,51,60,53,50,100,79,42,30.26,30.22,30.18,10,6,0,12,2,,0.01,0,Fog,90
2013-8-18,82,68,53,62,57,52,94,74,41,30.22,30.17,30.12,10,8,1,7,1,,0.00,0,,281
2013-8-19,84,70,55,63,58,54,100,82,44,30.14,30.11,30.06,10,6,0,10,1,16,0.00,0,Fog,247
2013-8-20,87,73,60,66,62,58,100,75,44,30.16,30.12,30.09,10,7,2,9,3,,0.00,0,,206
2013-8-21,88,76,64,68,65,63,94,72,46,30.14,30.09,30.02,10,8,2,10,4,,0.00,0,,193
2013-8-22,79,72,66,70,67,65,96,84,74,30.11,30.07,30.01,10,9,5,20,7,33,0.20,5,Rain-Thunderstorm,288
2013-8-23,82,72,60,66,60,49,100,76,31,30.19,30.12,30.08,10,7,0,9,5,,0.00,2,Fog,31
2013-8-24,84,68,53,58,54,51,97,66,33,30.30,30.26,30.19,10,10,8,10,3,,0.00,0,,139
2013-8-25,88,72,57,65,60,55,93,66,40,30.30,30.24,30.18,10,10,8,13,5,18,0.00,0,,198
2013-8-26,90,76,64,70,66,60,87,72,49,30.20,30.12,30.03,10,10,8,13,7,,0.00,0,,227
2013-8-27,93,81,71,73,70,68,91,74,52,30.02,29.96,29.87,10,8,4,16,7,21,0.00,1,,219
2013-8-28,88,80,70,73,70,66,93,72,57,30.02,29.92,29.85,10,10,5,13,9,,0.03,3,Rain,336
2013-8-29,89,76,64,69,66,64,100,84,46,30.08,30.04,29.99,10,4,0,6,1,,0.01,1,Fog,34
2013-8-30,91,78,64,72,66,63,100,82,45,30.01,29.94,29.76,10,5,0,14,3,20,0.00,0,Fog,195
2013-8-31,84,76,69,72,69,66,94,83,56,29.87,29.82,29.76,10,7,2,10,5,20,0.02,5,Rain,291